Norden-Norddeich Airport

EDWS · 下萨克森, 德国

罗盘
风向 的 风向 250° Norden-Norddeich Airport 16/34
风: 10 kt, 3 beaufort


10 kt
改变
0 5.000 10.000 15.000 20.000
BKN 5.300 ft
BKN 14.000 ft
SPECI EDWE 072220Z AUTO 25010KT 9999 // BKN053/// BKN140/// 03/01 Q1008

METAR Norden-Norddeich Airport - EDWS/NOD

Norden-Norddeich Airport是,德国中的小机场。 该机场有一条跑道: 16/34. 该领域的国际民航组织标志是EDWS 它的国际航空运输协会代码是NOD.

这份报告是针对2022年12月7日 23:20, 当地时间在Emden Airport进行的。

机场观察

风向为250°,速度为10 kt。

可见度为10 km 或者更多。

有碎云在5.300 ft的高度 和 碎云在14.000 ft的高度。 破损或更高的上限为5.300 ft。

温度为3 °C,阵风为-3 °C。 露点为1 °C,相对湿度为87%。 海平面上的气压为1008 hPa (QNH)。

白天

今天,太阳从08:33升起,在16:12降落。 这适用于Norden-Norddeich Airport,世界夏令时可能有所不同。 当地时间与世界标准时间之间的时差为+1 小时。 当前,没有夏令时有效。

公司介绍

我们没有关于这个机场的公司信息。

体会

到Vliegles.nl去找飞行课程,跳伞和其他飞行体验。 浏览页面,了解Norden-Norddeich Airport附近所有可用的活动。 你也可以使用搜索功能来寻找你所在地附近的特定飞行课程、跳伞或其他飞行体验。

跑道

Id 标题 侧风 逆风 侧风 %
16/34 159°-339° 10 kt 100 %

逆风成分最大的方向会被突出显示,并用于横风计算。 这并不一定意味着这个方向在使用。

乌云

5.300 ft BKN 碎云
14.000 ft BKN 碎云

温度 & 天气

温度 3 °C
露点 1 °C
相对湿度 87%
风寒 -3 °C
Kp-index 3 (0-9)

白天

日出
08:31 (8:22)
中午
12:22
日落
16:13

小工具

你想在你的网站上有一个关于Norden-Norddeich Airport的当前航空天气(METAR)的小部件吗?

显示HTML代码

我们和第三方通过cookies跟踪您在我们网站上的互联网行为。如果你继续,我们认为你同意我们的饼干政策